Time;durP1;ratioP1;P1;durP2;ratioP2;P2;SDS_P1;SDS_P2;PMS_P1;PMS_P2;Temp;Humidity;BMP_temperature;BMP_pressure;BME280_temperature;BME280_humidity;BME280_pressure;Samples;Min_cycle;Max_cycle;Signal;HPM_P1;HPM_P2
2023/03/18 00:00:35;;;;;;;16.10;9.10;;;;;;;;;;4984352;28;20239;-74
2023/03/18 00:03:02;;;;;;;15.03;8.43;;;;;;;;;;4929697;28;20216;-73
2023/03/18 00:05:29;;;;;;;13.20;8.20;;;;;;;;;;4965077;28;20459;-75
2023/03/18 00:07:56;;;;;;;15.10;8.27;;;;;;;;;;4949727;28;20856;-74
2023/03/18 00:10:23;;;;;;;13.00;7.47;;;;;;;;;;4964754;28;20490;-75
2023/03/18 00:12:52;;;;;;;16.73;8.57;;;;;;;;;;4963442;28;20283;-76
2023/03/18 00:15:18;;;;;;;15.63;8.00;;;;;;;;;;4963028;28;20459;-74
2023/03/18 00:17:45;;;;;;;16.87;7.87;;;;;;;;;;4964803;28;20236;-74
2023/03/18 00:20:12;;;;;;;16.60;8.37;;;;;;;;;;4963044;28;20470;-74
2023/03/18 00:22:39;;;;;;;14.80;8.17;;;;;;;;;;4964556;28;20232;-75
2023/03/18 00:25:06;;;;;;;13.90;7.33;;;;;;;;;;4960458;28;20227;-74
2023/03/18 00:27:33;;;;;;;11.97;7.90;;;;;;;;;;4965259;28;20232;-74
2023/03/18 00:30:00;;;;;;;12.47;5.53;;;;;;;;;;4946944;28;20460;-74
2023/03/18 00:32:27;;;;;;;13.63;8.57;;;;;;;;;;4964083;28;20487;-75
2023/03/18 00:34:55;;;;;;;14.83;7.50;;;;;;;;;;4961269;28;20480;-74
2023/03/18 00:37:33;;;;;;;16.60;7.57;;;;;;;;;;4964485;28;20518;-74
2023/03/18 00:40:05;;;;;;;17.10;8.07;;;;;;;;;;4963448;28;20491;-74
2023/03/18 00:42:38;;;;;;;16.47;8.10;;;;;;;;;;4963022;28;20904;-74
2023/03/18 00:45:09;;;;;;;14.33;8.57;;;;;;;;;;4946289;28;20447;-74
2023/03/18 00:47:37;;;;;;;15.30;8.37;;;;;;;;;;4949590;28;20459;-75
2023/03/18 00:50:05;;;;;;;16.93;8.60;;;;;;;;;;4945175;28;20460;-74
2023/03/18 00:52:32;;;;;;;15.97;9.20;;;;;;;;;;4962990;28;20468;-73
2023/03/18 00:54:59;;;;;;;16.93;8.13;;;;;;;;;;4970066;28;20459;-74
2023/03/18 00:57:28;;;;;;;14.60;7.87;;;;;;;;;;4982036;28;20482;-73
2023/03/18 00:59:55;;;;;;;17.47;8.33;;;;;;;;;;4965966;28;20308;-75
2023/03/18 01:02:23;;;;;;;16.97;8.67;;;;;;;;;;4964413;28;20236;-74
2023/03/18 01:04:50;;;;;;;12.67;7.73;;;;;;;;;;4981667;28;20466;-73
2023/03/18 01:07:17;;;;;;;14.73;8.17;;;;;;;;;;4966151;28;20803;-75
2023/03/18 01:09:44;;;;;;;15.43;7.83;;;;;;;;;;4981964;28;20459;-74
2023/03/18 01:12:10;;;;;;;13.60;7.27;;;;;;;;;;4981765;28;20802;-74
2023/03/18 01:14:38;;;;;;;15.67;8.17;;;;;;;;;;4948297;28;20803;-75
2023/03/18 01:17:06;;;;;;;15.73;7.93;;;;;;;;;;4963768;28;20545;-75
2023/03/18 01:19:33;;;;;;;16.03;8.50;;;;;;;;;;4966256;28;20815;-74
2023/03/18 01:22:00;;;;;;;14.97;8.50;;;;;;;;;;4964726;28;20692;-74
2023/03/18 01:24:27;;;;;;;15.43;7.97;;;;;;;;;;4965864;28;20448;-75
2023/03/18 01:26:54;;;;;;;16.50;6.90;;;;;;;;;;4964127;28;20467;-74
2023/03/18 01:29:22;;;;;;;18.90;8.40;;;;;;;;;;4965059;28;20462;-74
2023/03/18 01:31:50;;;;;;;14.00;7.53;;;;;;;;;;4964209;28;20719;-74
2023/03/18 01:34:17;;;;;;;14.07;7.30;;;;;;;;;;4981551;28;20479;-73
2023/03/18 01:36:48;;;;;;;17.10;8.10;;;;;;;;;;4964243;28;20334;-74
2023/03/18 01:39:16;;;;;;;16.43;8.40;;;;;;;;;;4965908;28;20466;-74
2023/03/18 01:41:43;;;;;;;15.10;7.40;;;;;;;;;;4963740;28;20462;-75
2023/03/18 02:16:24;;;;;;;12.73;6.73;;;;;;;;;;4963619;28;20463;-74
2023/03/18 02:18:55;;;;;;;17.13;7.30;;;;;;;;;;4947649;28;20536;-74
2023/03/18 02:21:33;;;;;;;16.07;7.63;;;;;;;;;;4948283;28;20463;-75
2023/03/18 02:24:10;;;;;;;14.10;5.90;;;;;;;;;;4980359;28;20451;-75
2023/03/18 02:26:37;;;;;;;16.20;7.67;;;;;;;;;;4980263;28;20478;-75
2023/03/18 02:29:05;;;;;;;15.00;7.20;;;;;;;;;;4963698;28;20464;-74
2023/03/18 02:31:42;;;;;;;13.87;6.60;;;;;;;;;;4965289;28;20228;-75
2023/03/18 02:34:09;;;;;;;16.27;7.17;;;;;;;;;;4949223;28;20456;-73
2023/03/18 02:36:36;;;;;;;16.27;7.70;;;;;;;;;;4982141;28;20460;-74
2023/03/18 02:39:11;;;;;;;13.07;6.43;;;;;;;;;;4965548;28;20518;-75
2023/03/18 02:41:37;;;;;;;14.63;7.23;;;;;;;;;;4965230;28;21061;-74
2023/03/18 02:44:04;;;;;;;13.80;6.83;;;;;;;;;;4981783;28;20462;-74
2023/03/18 02:46:54;;;;;;;15.20;8.03;;;;;;;;;;4979748;28;20463;-75
2023/03/18 02:49:21;;;;;;;13.83;6.90;;;;;;;;;;4965282;28;20459;-75
2023/03/18 02:51:49;;;;;;;12.60;7.17;;;;;;;;;;4978865;28;20228;-74
2023/03/18 02:54:20;;;;;;;13.00;6.47;;;;;;;;;;4966962;28;20224;-75
2023/03/18 02:56:46;;;;;;;16.10;7.37;;;;;;;;;;4964987;28;20291;-74
2023/03/18 02:59:13;;;;;;;14.57;7.83;;;;;;;;;;4966575;28;20525;-75
2023/03/18 03:01:41;;;;;;;15.50;7.43;;;;;;;;;;4966259;28;20526;-75
2023/03/18 03:04:08;;;;;;;13.60;6.90;;;;;;;;;;4984570;28;20459;-75
2023/03/18 03:06:35;;;;;;;15.87;7.43;;;;;;;;;;4984420;28;20219;-76
2023/03/18 03:09:03;;;;;;;16.07;6.73;;;;;;;;;;4983405;28;20459;-74
2023/03/18 03:11:30;;;;;;;15.80;7.97;;;;;;;;;;4984128;28;20455;-75
2023/03/18 03:14:07;;;;;;;12.50;7.27;;;;;;;;;;4969164;28;20817;-74
2023/03/18 03:16:35;;;;;;;15.50;8.10;;;;;;;;;;4984039;28;20467;-74
2023/03/18 03:19:01;;;;;;;15.53;6.10;;;;;;;;;;4968534;28;20467;-74
2023/03/18 03:21:29;;;;;;;15.30;7.87;;;;;;;;;;4968522;28;20816;-75
2023/03/18 03:23:57;;;;;;;13.80;7.20;;;;;;;;;;4982896;28;20466;-75
2023/03/18 03:26:23;;;;;;;14.93;7.33;;;;;;;;;;4984427;28;20396;-75
2023/03/18 03:28:50;;;;;;;14.67;7.50;;;;;;;;;;4982613;28;20547;-75
2023/03/18 03:31:19;;;;;;;13.90;8.10;;;;;;;;;;4983297;28;20474;-75
2023/03/18 03:33:46;;;;;;;15.50;7.73;;;;;;;;;;4967703;28;20865;-75
2023/03/18 03:36:14;;;;;;;17.37;7.63;;;;;;;;;;4983328;28;20678;-74
2023/03/18 03:38:41;;;;;;;18.60;8.73;;;;;;;;;;4967424;28;21878;-75
2023/03/18 03:41:11;;;;;;;14.60;7.83;;;;;;;;;;4960924;28;23668;-75
2023/03/18 03:43:39;;;;;;;14.80;7.23;;;;;;;;;;4962672;28;20543;-74
2023/03/18 03:46:07;;;;;;;13.60;8.03;;;;;;;;;;4964360;28;20473;-75
2023/03/18 03:48:35;;;;;;;13.73;8.60;;;;;;;;;;4962724;28;20475;-76
2023/03/18 03:51:02;;;;;;;15.93;8.30;;;;;;;;;;4946012;28;20475;-74
2023/03/18 03:53:29;;;;;;;14.93;7.43;;;;;;;;;;4963915;28;20471;-75
2023/03/18 03:55:56;;;;;;;13.97;7.43;;;;;;;;;;4946076;28;20464;-75
2023/03/18 03:58:25;;;;;;;14.40;7.73;;;;;;;;;;4968451;28;20490;-75
2023/03/18 04:00:52;;;;;;;16.67;7.87;;;;;;;;;;4947826;28;20561;-75
2023/03/18 04:03:19;;;;;;;14.97;7.60;;;;;;;;;;4965162;28;20460;-75
2023/03/18 04:05:46;;;;;;;13.10;7.23;;;;;;;;;;4945933;28;20472;-73
2023/03/18 04:08:15;;;;;;;15.17;7.37;;;;;;;;;;4945730;28;20228;-73
2023/03/18 04:10:42;;;;;;;12.87;7.00;;;;;;;;;;4947727;28;20468;-74
2023/03/18 04:13:09;;;;;;;13.10;7.63;;;;;;;;;;4962509;28;33114;-74
2023/03/18 04:15:38;;;;;;;15.73;7.77;;;;;;;;;;4952944;28;20279;-74
2023/03/18 04:18:08;;;;;;;15.00;8.07;;;;;;;;;;4946980;28;20906;-74
2023/03/18 04:20:36;;;;;;;14.43;7.40;;;;;;;;;;4961922;28;20473;-74
2023/03/18 04:23:11;;;;;;;13.93;8.03;;;;;;;;;;4946510;28;20461;-74
2023/03/18 04:25:39;;;;;;;15.30;6.90;;;;;;;;;;4963891;28;20546;-75
2023/03/18 04:28:05;;;;;;;13.90;7.73;;;;;;;;;;4963121;28;20461;-74
2023/03/18 04:30:32;;;;;;;12.50;8.10;;;;;;;;;;4965269;28;20692;-74
2023/03/18 04:33:04;;;;;;;14.90;8.23;;;;;;;;;;4945260;28;20553;-74
2023/03/18 04:35:32;;;;;;;15.03;7.90;;;;;;;;;;4964257;28;22380;-75
2023/03/18 04:37:59;;;;;;;14.70;7.60;;;;;;;;;;4929268;28;20483;-74
2023/03/18 04:40:27;;;;;;;15.30;6.83;;;;;;;;;;4946952;28;20819;-74
2023/03/18 04:42:54;;;;;;;19.20;8.13;;;;;;;;;;4962583;28;20540;-74
2023/03/18 04:45:24;;;;;;;16.23;8.60;;;;;;;;;;4945383;28;20974;-74
2023/03/18 04:47:54;;;;;;;15.60;7.93;;;;;;;;;;4945212;28;20251;-75
2023/03/18 04:50:21;;;;;;;14.83;7.60;;;;;;;;;;4932043;28;21045;-75
2023/03/18 04:52:48;;;;;;;13.87;6.90;;;;;;;;;;4962319;28;20256;-75
2023/03/18 04:55:20;;;;;;;16.20;7.63;;;;;;;;;;4945087;28;21320;-75
2023/03/18 04:57:49;;;;;;;15.30;8.17;;;;;;;;;;4961653;28;20458;-73
2023/03/18 05:00:22;;;;;;;16.53;8.47;;;;;;;;;;4971617;28;20471;-73
2023/03/18 05:02:56;;;;;;;18.37;8.40;;;;;;;;;;4950077;28;20469;-74
2023/03/18 05:05:24;;;;;;;15.47;8.70;;;;;;;;;;4964371;28;20455;-74
2023/03/18 05:07:52;;;;;;;13.17;8.07;;;;;;;;;;4973742;28;20360;-74
2023/03/18 05:10:20;;;;;;;15.40;8.03;;;;;;;;;;4944893;28;20491;-75
2023/03/18 05:12:47;;;;;;;13.30;7.70;;;;;;;;;;4947211;28;20523;-74
2023/03/18 05:15:18;;;;;;;13.03;7.13;;;;;;;;;;4945323;28;20491;-74
2023/03/18 05:17:53;;;;;;;14.10;7.83;;;;;;;;;;4961029;28;20547;-74
2023/03/18 05:20:20;;;;;;;15.10;7.73;;;;;;;;;;4964408;28;32145;-75
2023/03/18 05:22:48;;;;;;;13.43;7.70;;;;;;;;;;4945562;28;20447;-74
2023/03/18 05:25:25;;;;;;;12.50;6.93;;;;;;;;;;4933781;28;20451;-73
2023/03/18 05:27:53;;;;;;;13.60;7.17;;;;;;;;;;4949487;28;20463;-74
2023/03/18 05:30:29;;;;;;;15.50;8.00;;;;;;;;;;4945859;28;20455;-73
2023/03/18 05:32:55;;;;;;;15.57;8.10;;;;;;;;;;4962225;28;20465;-71
2023/03/18 05:35:38;;;;;;;15.90;7.80;;;;;;;;;;4963993;28;20552;-71
2023/03/18 05:38:06;;;;;;;14.80;7.80;;;;;;;;;;4976910;28;20467;-71
2023/03/18 05:40:33;;;;;;;16.47;7.27;;;;;;;;;;4960858;28;20313;-72
2023/03/18 05:43:09;;;;;;;16.03;8.17;;;;;;;;;;4957434;28;20462;-72
2023/03/18 05:45:43;;;;;;;12.10;7.23;;;;;;;;;;4970510;28;20459;-73
2023/03/18 05:48:13;;;;;;;16.87;8.13;;;;;;;;;;4966551;28;20459;-70
2023/03/18 05:50:48;;;;;;;13.80;7.87;;;;;;;;;;4949458;28;20734;-70
2023/03/18 05:53:18;;;;;;;13.97;8.10;;;;;;;;;;4963291;28;20545;-71
2023/03/18 05:55:52;;;;;;;16.50;8.10;;;;;;;;;;4979987;28;21035;-70
2023/03/18 05:58:19;;;;;;;16.97;7.67;;;;;;;;;;4983422;28;20462;-68
2023/03/18 06:00:53;;;;;;;16.43;7.13;;;;;;;;;;4962866;28;20459;-68
2023/03/18 06:03:20;;;;;;;18.87;7.87;;;;;;;;;;4966369;28;20466;-71
2023/03/18 06:05:48;;;;;;;16.13;7.03;;;;;;;;;;4965916;28;20842;-71
2023/03/18 06:08:16;;;;;;;15.17;7.83;;;;;;;;;;4935848;28;20478;-71
2023/03/18 06:10:43;;;;;;;13.53;7.23;;;;;;;;;;4965463;28;20466;-70
2023/03/18 06:13:10;;;;;;;15.90;7.50;;;;;;;;;;4951693;28;20544;-71
2023/03/18 06:15:37;;;;;;;16.17;7.87;;;;;;;;;;4967559;28;20830;-71
2023/03/18 06:18:05;;;;;;;14.63;7.13;;;;;;;;;;4956179;28;20834;-71
2023/03/18 06:20:32;;;;;;;14.50;7.53;;;;;;;;;;4925135;28;20459;-70
2023/03/18 06:22:59;;;;;;;15.57;7.00;;;;;;;;;;4982670;28;20452;-73
2023/03/18 06:25:26;;;;;;;15.57;7.83;;;;;;;;;;4967112;28;20512;-75
2023/03/18 06:27:53;;;;;;;14.90;7.97;;;;;;;;;;4974415;28;20331;-70
2023/03/18 06:30:24;;;;;;;11.87;6.63;;;;;;;;;;4981869;28;20235;-70
2023/03/18 06:32:52;;;;;;;14.00;7.03;;;;;;;;;;4969314;28;20556;-72
2023/03/18 06:35:25;;;;;;;13.57;7.87;;;;;;;;;;4981587;28;20493;-71
2023/03/18 06:37:53;;;;;;;14.03;6.87;;;;;;;;;;4983250;28;20467;-71
2023/03/18 06:40:21;;;;;;;12.33;7.50;;;;;;;;;;4969149;28;20546;-72
2023/03/18 06:42:48;;;;;;;11.57;7.40;;;;;;;;;;4983203;28;20462;-73
2023/03/18 06:45:31;;;;;;;13.97;6.93;;;;;;;;;;4984828;28;20231;-72
2023/03/18 06:48:03;;;;;;;12.80;6.70;;;;;;;;;;4966715;28;20965;-74
2023/03/18 06:50:33;;;;;;;14.07;7.50;;;;;;;;;;4982571;28;20458;-72
2023/03/18 06:53:00;;;;;;;15.40;7.47;;;;;;;;;;4982123;28;20470;-71
2023/03/18 06:55:30;;;;;;;11.63;7.00;;;;;;;;;;4982542;28;20462;-76
2023/03/18 06:57:58;;;;;;;15.13;7.43;;;;;;;;;;4968603;28;20262;-74
2023/03/18 07:00:33;;;;;;;12.00;6.60;;;;;;;;;;4981259;28;20243;-74
2023/03/18 07:03:00;;;;;;;16.07;7.47;;;;;;;;;;4980631;28;20318;-70
2023/03/18 07:05:27;;;;;;;15.37;6.87;;;;;;;;;;4982526;28;20238;-72
2023/03/18 07:07:54;;;;;;;15.63;7.87;;;;;;;;;;4973793;28;20234;-71
2023/03/18 07:10:26;;;;;;;15.30;7.73;;;;;;;;;;4979429;28;20459;-70
2023/03/18 07:13:00;;;;;;;15.77;7.10;;;;;;;;;;4952036;28;20227;-71
2023/03/18 07:15:27;;;;;;;13.40;7.50;;;;;;;;;;4980515;28;20235;-72
2023/03/18 07:17:56;;;;;;;16.93;7.23;;;;;;;;;;4980303;28;20930;-71
2023/03/18 07:20:22;;;;;;;15.17;7.50;;;;;;;;;;4982483;28;21205;-71
2023/03/18 07:22:50;;;;;;;13.30;7.47;;;;;;;;;;4980462;28;20463;-70
2023/03/18 07:25:17;;;;;;;12.37;6.70;;;;;;;;;;4981233;28;20220;-70
2023/03/18 07:27:47;;;;;;;15.23;7.20;;;;;;;;;;4969235;28;20307;-70
2023/03/18 07:30:14;;;;;;;12.83;7.00;;;;;;;;;;4983178;28;20647;-73
2023/03/18 07:32:42;;;;;;;15.57;8.07;;;;;;;;;;4918509;28;20638;-78
2023/03/18 07:35:12;;;;;;;16.13;7.67;;;;;;;;;;4954881;28;20227;-78
2023/03/18 07:37:40;;;;;;;12.93;7.23;;;;;;;;;;4985859;28;20223;-75
2023/03/18 07:40:07;;;;;;;14.60;7.20;;;;;;;;;;4984177;28;20255;-75
2023/03/18 07:42:34;;;;;;;15.77;8.00;;;;;;;;;;4976655;28;20220;-71
2023/03/18 07:45:01;;;;;;;13.40;7.97;;;;;;;;;;4962255;28;20280;-76
2023/03/18 07:47:28;;;;;;;13.03;6.70;;;;;;;;;;4960633;28;218629;-75
2023/03/18 07:49:56;;;;;;;13.43;7.87;;;;;;;;;;4968133;28;20224;-73
2023/03/18 07:52:24;;;;;;;14.40;6.83;;;;;;;;;;4946591;28;20724;-74
2023/03/18 07:54:55;;;;;;;12.93;7.10;;;;;;;;;;4957693;28;20252;-73
2023/03/18 07:57:46;;;;;;;15.73;6.80;;;;;;;;;;4968619;28;20231;-73
2023/03/18 08:00:18;;;;;;;14.53;6.80;;;;;;;;;;4994820;28;20242;-73
2023/03/18 08:02:46;;;;;;;13.30;7.00;;;;;;;;;;4980962;28;20236;-74
2023/03/18 08:05:14;;;;;;;14.20;7.17;;;;;;;;;;4986695;28;20224;-74
2023/03/18 08:07:41;;;;;;;14.90;7.70;;;;;;;;;;4923047;28;20303;-74
2023/03/18 08:10:08;;;;;;;14.43;7.50;;;;;;;;;;4956454;28;20330;-74
2023/03/18 08:12:35;;;;;;;12.40;7.10;;;;;;;;;;4982088;28;20232;-75
2023/03/18 08:15:17;;;;;;;17.77;8.37;;;;;;;;;;4955202;28;20355;-74
2023/03/18 08:17:44;;;;;;;12.90;7.27;;;;;;;;;;4981865;28;20235;-75
2023/03/18 08:20:11;;;;;;;12.20;7.30;;;;;;;;;;4975638;28;216992;-75
2023/03/18 08:22:38;;;;;;;14.43;7.07;;;;;;;;;;4983971;28;20323;-76
2023/03/18 08:25:06;;;;;;;14.80;7.17;;;;;;;;;;4989904;28;20606;-74
2023/03/18 08:27:33;;;;;;;13.33;7.30;;;;;;;;;;4965901;28;20245;-73
2023/03/18 08:30:00;;;;;;;14.50;7.37;;;;;;;;;;4982175;28;20227;-76
2023/03/18 08:32:29;;;;;;;12.97;7.13;;;;;;;;;;4972075;28;220272;-76
2023/03/18 08:34:56;;;;;;;17.87;7.87;;;;;;;;;;4984985;28;21459;-76
2023/03/18 08:37:23;;;;;;;12.27;7.03;;;;;;;;;;4968913;28;20573;-76
2023/03/18 08:39:50;;;;;;;15.23;7.57;;;;;;;;;;4962312;28;20271;-75
2023/03/18 08:42:18;;;;;;;13.50;7.40;;;;;;;;;;4983782;28;20226;-76
2023/03/18 08:44:44;;;;;;;11.77;7.20;;;;;;;;;;4983731;28;20231;-74
2023/03/18 08:47:11;;;;;;;15.83;7.30;;;;;;;;;;4993204;28;20262;-75
2023/03/18 08:49:38;;;;;;;12.03;7.10;;;;;;;;;;4954276;28;20227;-75
2023/03/18 08:52:05;;;;;;;16.47;7.83;;;;;;;;;;4953006;28;20232;-75
2023/03/18 08:54:32;;;;;;;12.47;6.93;;;;;;;;;;4961018;28;220566;-76
2023/03/18 08:56:59;;;;;;;13.97;7.17;;;;;;;;;;4969073;28;20353;-74
2023/03/18 08:59:26;;;;;;;13.03;7.40;;;;;;;;;;4966631;28;20789;-73
2023/03/18 09:01:52;;;;;;;12.97;7.27;;;;;;;;;;4983036;28;20618;-76
2023/03/18 09:04:19;;;;;;;13.30;7.50;;;;;;;;;;4962357;28;20232;-75
2023/03/18 09:06:47;;;;;;;15.50;6.77;;;;;;;;;;4961626;28;20295;-75
2023/03/18 09:09:14;;;;;;;12.67;7.37;;;;;;;;;;4980694;28;20254;-74
2023/03/18 09:11:41;;;;;;;12.27;6.67;;;;;;;;;;4937771;28;20234;-75
2023/03/18 09:14:07;;;;;;;12.13;7.67;;;;;;;;;;4983934;28;20576;-75
2023/03/18 09:16:35;;;;;;;13.10;7.60;;;;;;;;;;4981709;28;20235;-75
2023/03/18 09:19:02;;;;;;;13.13;6.73;;;;;;;;;;4982896;28;20705;-74
2023/03/18 09:21:30;;;;;;;14.67;6.50;;;;;;;;;;4979247;28;20698;-74
2023/03/18 09:23:57;;;;;;;12.97;7.03;;;;;;;;;;4953843;28;20236;-76
2023/03/18 09:26:24;;;;;;;11.83;6.43;;;;;;;;;;4962998;28;20609;-75
2023/03/18 09:28:51;;;;;;;13.37;5.80;;;;;;;;;;4952785;28;20228;-75
2023/03/18 09:31:18;;;;;;;12.27;6.80;;;;;;;;;;4983558;28;20239;-74
2023/03/18 09:33:45;;;;;;;12.10;6.57;;;;;;;;;;4966021;28;20228;-75
2023/03/18 09:36:12;;;;;;;12.77;6.80;;;;;;;;;;4963470;28;20235;-73
2023/03/18 09:38:40;;;;;;;14.23;6.63;;;;;;;;;;4984619;28;223717;-74
2023/03/18 09:41:09;;;;;;;12.10;6.80;;;;;;;;;;4981305;28;20224;-74
2023/03/18 09:43:56;;;;;;;15.43;6.23;;;;;;;;;;4953537;28;20706;-75
2023/03/18 09:46:27;;;;;;;11.43;6.57;;;;;;;;;;4958956;28;221224;-74
2023/03/18 09:49:12;;;;;;;9.30;5.80;;;;;;;;;;4964998;28;20868;-74
2023/03/18 09:52:08;;;;;;;9.57;6.07;;;;;;;;;;4975286;28;219946;-74
2023/03/18 09:54:37;;;;;;;12.43;6.70;;;;;;;;;;4878764;28;20306;-73
2023/03/18 09:57:04;;;;;;;9.13;5.83;;;;;;;;;;4981276;28;20307;-75
2023/03/18 09:59:31;;;;;;;12.07;6.53;;;;;;;;;;4966391;28;20295;-74
2023/03/18 10:01:58;;;;;;;10.93;6.20;;;;;;;;;;4981784;28;20232;-74
2023/03/18 10:04:46;;;;;;;13.70;6.83;;;;;;;;;;4966570;28;20235;-74
2023/03/18 10:07:15;;;;;;;11.07;6.10;;;;;;;;;;4980075;28;20627;-76
2023/03/18 10:09:44;;;;;;;11.90;6.37;;;;;;;;;;4980982;28;20286;-74
2023/03/18 10:12:20;;;;;;;19.33;9.70;;;;;;;;;;4950547;28;20259;-75
2023/03/18 10:14:55;;;;;;;13.83;6.70;;;;;;;;;;4966906;28;20227;-75
2023/03/18 10:17:49;;;;;;;13.07;6.13;;;;;;;;;;4966505;28;20290;-75
2023/03/18 10:20:24;;;;;;;12.03;6.70;;;;;;;;;;4949074;28;20315;-75
2023/03/18 10:23:05;;;;;;;15.20;6.73;;;;;;;;;;4959666;28;216634;-74
2023/03/18 10:25:36;;;;;;;13.07;6.50;;;;;;;;;;4964182;28;20289;-74
2023/03/18 10:28:22;;;;;;;12.73;6.30;;;;;;;;;;4960446;28;20226;-74
2023/03/18 10:31:00;;;;;;;13.40;6.60;;;;;;;;;;4964249;28;20683;-74
2023/03/18 10:33:47;;;;;;;11.13;7.17;;;;;;;;;;4984895;28;20231;-74
2023/03/18 10:36:27;;;;;;;13.10;7.33;;;;;;;;;;4976237;28;20718;-73
2023/03/18 10:38:55;;;;;;;13.80;7.03;;;;;;;;;;4987414;28;20299;-74
2023/03/18 10:41:22;;;;;;;15.33;7.03;;;;;;;;;;4991302;28;20926;-74
2023/03/18 10:43:52;;;;;;;14.40;7.60;;;;;;;;;;4961367;28;20237;-73
2023/03/18 10:46:20;;;;;;;15.07;8.17;;;;;;;;;;4971378;28;20251;-74
2023/03/18 10:48:49;;;;;;;13.33;7.53;;;;;;;;;;4982820;28;20219;-73
2023/03/18 10:51:28;;;;;;;21.13;9.50;;;;;;;;;;4952366;28;20290;-73
2023/03/18 10:54:01;;;;;;;17.90;7.97;;;;;;;;;;4968664;28;20326;-75
2023/03/18 10:56:28;;;;;;;22.20;12.30;;;;;;;;;;4981979;28;20240;-73
2023/03/18 10:58:56;;;;;;;14.87;10.13;;;;;;;;;;4994912;28;20694;-73
2023/03/18 11:01:24;;;;;;;17.40;10.27;;;;;;;;;;4998641;28;20250;-74
2023/03/18 11:04:11;;;;;;;14.60;8.13;;;;;;;;;;4929609;28;20233;-73
2023/03/18 11:06:58;;;;;;;17.33;9.63;;;;;;;;;;4980540;28;20640;-73
2023/03/18 11:09:29;;;;;;;14.77;7.23;;;;;;;;;;4992937;28;20299;-73
2023/03/18 11:11:56;;;;;;;13.93;7.23;;;;;;;;;;4995882;28;20235;-74
2023/03/18 11:14:27;;;;;;;16.07;8.37;;;;;;;;;;4982461;28;20599;-74
2023/03/18 11:17:01;;;;;;;28.33;14.70;;;;;;;;;;4974707;28;20232;-73
2023/03/18 11:19:28;;;;;;;14.50;8.40;;;;;;;;;;4987672;28;20239;-73
2023/03/18 11:22:18;;;;;;;16.43;7.93;;;;;;;;;;4988669;28;20740;-74
2023/03/18 11:24:45;;;;;;;12.57;6.93;;;;;;;;;;4978229;28;20280;-74
2023/03/18 11:27:12;;;;;;;15.40;7.87;;;;;;;;;;4975038;28;20228;-73
2023/03/18 11:29:40;;;;;;;11.27;6.63;;;;;;;;;;4999657;28;20242;-73
2023/03/18 11:32:10;;;;;;;11.27;5.67;;;;;;;;;;4951749;28;20239;-74
2023/03/18 11:34:37;;;;;;;9.47;6.03;;;;;;;;;;4980016;28;20279;-74
2023/03/18 11:37:05;;;;;;;12.00;6.23;;;;;;;;;;4972596;28;20220;-75
2023/03/18 11:39:36;;;;;;;11.67;6.40;;;;;;;;;;4995982;28;231514;-73
2023/03/18 11:42:09;;;;;;;13.83;6.97;;;;;;;;;;4952878;28;20231;-73
2023/03/18 11:44:36;;;;;;;12.30;6.70;;;;;;;;;;4979001;28;20227;-74
2023/03/18 11:47:06;;;;;;;11.73;5.87;;;;;;;;;;4993052;28;20569;-73
2023/03/18 11:49:33;;;;;;;15.23;6.97;;;;;;;;;;4993506;28;20301;-74
2023/03/18 11:52:03;;;;;;;10.90;6.63;;;;;;;;;;4995792;28;20307;-74
2023/03/18 11:54:50;;;;;;;12.97;6.77;;;;;;;;;;4971782;28;20327;-73
2023/03/18 11:57:19;;;;;;;12.37;6.33;;;;;;;;;;4978767;28;20302;-73
2023/03/18 11:59:46;;;;;;;10.60;6.83;;;;;;;;;;4974994;28;20231;-72
2023/03/18 12:02:16;;;;;;;11.00;6.57;;;;;;;;;;4967376;28;20742;-71
2023/03/18 12:04:47;;;;;;;11.40;6.60;;;;;;;;;;4987880;28;20312;-70
2023/03/18 12:07:32;;;;;;;14.77;7.33;;;;;;;;;;4987354;28;20248;-71
2023/03/18 12:10:13;;;;;;;10.50;6.33;;;;;;;;;;4931216;28;20247;-76
2023/03/18 12:13:03;;;;;;;12.50;7.40;;;;;;;;;;4972610;28;20712;-71
2023/03/18 12:15:39;;;;;;;11.13;7.07;;;;;;;;;;4919395;28;20235;-70
2023/03/18 12:18:07;;;;;;;10.27;6.13;;;;;;;;;;4975178;28;20709;-71
2023/03/18 12:20:48;;;;;;;14.17;6.87;;;;;;;;;;4961381;28;20227;-73
2023/03/18 12:23:34;;;;;;;11.90;7.00;;;;;;;;;;4942398;28;20230;-74
2023/03/18 12:26:04;;;;;;;12.73;7.27;;;;;;;;;;4968071;28;20695;-74
2023/03/18 12:28:33;;;;;;;12.70;7.40;;;;;;;;;;4966203;28;20334;-73
2023/03/18 12:31:19;;;;;;;14.07;7.87;;;;;;;;;;4979697;28;20243;-74
2023/03/18 12:33:49;;;;;;;13.57;7.43;;;;;;;;;;4954060;28;20321;-73
2023/03/18 12:36:34;;;;;;;12.63;7.33;;;;;;;;;;4971217;28;20246;-74
2023/03/18 12:39:20;;;;;;;12.30;6.80;;;;;;;;;;4957250;28;20944;-74
2023/03/18 12:42:08;;;;;;;11.27;6.60;;;;;;;;;;5009678;28;20310;-70
2023/03/18 12:44:36;;;;;;;16.10;7.70;;;;;;;;;;4997252;28;20273;-70
2023/03/18 12:47:15;;;;;;;13.27;7.50;;;;;;;;;;4990869;28;20369;-70
2023/03/18 12:49:45;;;;;;;12.77;7.50;;;;;;;;;;4983634;28;20231;-69
2023/03/18 12:52:23;;;;;;;15.10;7.70;;;;;;;;;;4958085;28;20724;-69
2023/03/18 12:54:54;;;;;;;13.63;7.90;;;;;;;;;;4986380;28;20227;-69
2023/03/18 12:57:31;;;;;;;13.70;7.50;;;;;;;;;;4985794;28;20239;-72
2023/03/18 13:00:00;;;;;;;15.27;7.90;;;;;;;;;;5008818;28;20238;-72
2023/03/18 13:02:46;;;;;;;18.07;10.10;;;;;;;;;;4978053;28;20275;-73
2023/03/18 13:05:17;;;;;;;17.67;9.63;;;;;;;;;;4994117;28;20242;-72
2023/03/18 13:07:45;;;;;;;18.37;10.03;;;;;;;;;;4985202;28;20232;-73
2023/03/18 13:10:15;;;;;;;17.53;8.90;;;;;;;;;;4995514;28;20239;-72
2023/03/18 13:12:42;;;;;;;14.70;7.13;;;;;;;;;;4992075;28;20242;-72
2023/03/18 13:15:31;;;;;;;11.70;6.33;;;;;;;;;;4994374;28;20590;-73
2023/03/18 13:18:01;;;;;;;11.83;6.90;;;;;;;;;;4980785;28;20281;-72
2023/03/18 13:20:28;;;;;;;11.90;6.40;;;;;;;;;;4963182;28;20274;-72
2023/03/18 13:23:04;;;;;;;11.23;6.63;;;;;;;;;;4990991;28;20234;-72
2023/03/18 13:25:50;;;;;;;14.30;7.20;;;;;;;;;;4984254;28;20220;-72
2023/03/18 13:28:24;;;;;;;12.70;7.20;;;;;;;;;;4972147;28;20227;-73
2023/03/18 13:30:51;;;;;;;15.97;7.37;;;;;;;;;;4973620;28;20238;-72
2023/03/18 13:33:23;;;;;;;8.57;4.33;;;;;;;;;;4972031;28;20742;-72
2023/03/18 13:35:51;;;;;;;14.23;7.70;;;;;;;;;;4997255;28;20219;-72
2023/03/18 13:38:17;;;;;;;13.00;7.33;;;;;;;;;;4968196;28;20262;-72
2023/03/18 13:41:03;;;;;;;16.40;7.93;;;;;;;;;;4993606;28;20683;-72
2023/03/18 13:43:34;;;;;;;11.70;6.93;;;;;;;;;;4995233;28;20285;-72
2023/03/18 13:46:01;;;;;;;12.07;7.27;;;;;;;;;;4984560;28;20235;-73
2023/03/18 13:48:32;;;;;;;13.10;7.03;;;;;;;;;;4977220;28;20227;-72
2023/03/18 13:51:12;;;;;;;13.80;7.27;;;;;;;;;;4943366;28;20247;-72
2023/03/18 13:53:40;;;;;;;12.80;7.27;;;;;;;;;;4945098;28;20226;-72
2023/03/18 13:56:24;;;;;;;12.43;6.67;;;;;;;;;;4975735;28;20231;-71
2023/03/18 13:58:52;;;;;;;12.50;6.87;;;;;;;;;;4971484;28;20304;-72
2023/03/18 14:01:27;;;;;;;13.00;7.27;;;;;;;;;;4988723;28;20317;-72
2023/03/18 14:03:55;;;;;;;9.57;5.47;;;;;;;;;;4977430;28;20646;-75
2023/03/18 14:06:42;;;;;;;13.00;7.23;;;;;;;;;;4953875;28;20228;-63
2023/03/18 14:09:38;;;;;;;11.67;7.20;;;;;;;;;;4966926;28;20329;-63
2023/03/18 14:12:19;;;;;;;13.07;6.53;;;;;;;;;;4867061;28;20262;-70
2023/03/18 14:14:50;;;;;;;13.53;7.50;;;;;;;;;;4985918;28;20235;-72
2023/03/18 14:17:32;;;;;;;10.23;5.87;;;;;;;;;;4988758;28;20224;-70
2023/03/18 14:20:20;;;;;;;12.17;7.00;;;;;;;;;;4973732;28;20248;-70
2023/03/18 14:22:48;;;;;;;13.37;6.73;;;;;;;;;;4952778;28;20319;-70
2023/03/18 14:25:37;;;;;;;10.53;6.50;;;;;;;;;;4954491;28;20260;-72
2023/03/18 14:28:08;;;;;;;11.47;7.07;;;;;;;;;;4963020;28;20331;-72
2023/03/18 14:30:35;;;;;;;12.47;7.30;;;;;;;;;;4957209;28;20229;-72
2023/03/18 14:33:25;;;;;;;12.53;6.97;;;;;;;;;;4968779;28;20236;-71
2023/03/18 14:35:58;;;;;;;13.30;7.13;;;;;;;;;;4951587;28;20228;-71
2023/03/18 14:38:39;;;;;;;14.33;7.33;;;;;;;;;;4965076;28;20633;-71
2023/03/18 14:41:16;;;;;;;11.43;6.97;;;;;;;;;;4964110;28;20750;-71
2023/03/18 14:43:50;;;;;;;13.00;7.33;;;;;;;;;;4962007;28;20312;-71
2023/03/18 14:46:17;;;;;;;13.53;8.00;;;;;;;;;;4932513;28;20683;-71
2023/03/18 14:48:51;;;;;;;13.97;7.17;;;;;;;;;;4932131;28;20286;-70
2023/03/18 14:51:19;;;;;;;13.37;7.57;;;;;;;;;;4926789;28;20357;-71
2023/03/18 14:53:57;;;;;;;16.10;7.43;;;;;;;;;;4930810;28;20639;-70
2023/03/18 14:56:27;;;;;;;16.37;8.17;;;;;;;;;;4948476;28;20315;-71
2023/03/18 14:58:55;;;;;;;19.00;9.40;;;;;;;;;;4944846;28;20235;-70
2023/03/18 15:01:33;;;;;;;9.97;5.90;;;;;;;;;;4965862;28;20297;-73
2023/03/18 15:04:00;;;;;;;10.97;5.73;;;;;;;;;;4948442;28;20224;-73
2023/03/18 15:06:28;;;;;;;12.47;7.53;;;;;;;;;;4942283;28;221174;-73
2023/03/18 15:09:20;;;;;;;13.03;7.80;;;;;;;;;;4962211;28;20225;-72
2023/03/18 15:11:48;;;;;;;15.17;7.83;;;;;;;;;;4944581;28;20240;-71
2023/03/18 15:14:18;;;;;;;14.93;7.87;;;;;;;;;;4966038;28;20228;-72
2023/03/18 15:16:55;;;;;;;14.67;8.20;;;;;;;;;;4963423;28;20311;-71
2023/03/18 15:19:22;;;;;;;13.40;7.93;;;;;;;;;;4981151;28;20235;-72
2023/03/18 15:21:49;;;;;;;13.77;8.20;;;;;;;;;;4961979;28;20301;-72